Time;durP1;ratioP1;P1;durP2;ratioP2;P2;SDS_P1;SDS_P2;PMS_P1;PMS_P2;Temp;Humidity;BMP_temperature;BMP_pressure;BME280_temperature;BME280_humidity;BME280_pressure;Samples;Min_cycle;Max_cycle;Signal;HPM_P1;HPM_P2
2023/06/23 00:01:20;;;;;;;8.90;5.53;;;24.20;70.20;;;;;;4996012;28;20035;-47
2023/06/23 00:03:46;;;;;;;9.10;5.68;;;24.20;70.00;;;;;;4995587;28;20552;-45
2023/06/23 00:06:15;;;;;;;7.75;5.38;;;24.20;70.10;;;;;;4995954;28;20041;-44
2023/06/23 00:08:41;;;;;;;9.75;5.22;;;24.20;69.90;;;;;;4995691;28;20092;-46
2023/06/23 00:11:08;;;;;;;11.38;5.20;;;24.20;69.50;;;;;;4995753;28;20041;-44
2023/06/23 00:13:35;;;;;;;8.57;5.47;;;24.20;69.60;;;;;;4995635;28;20022;-48
2023/06/23 00:16:05;;;;;;;7.88;5.40;;;24.20;69.70;;;;;;4995708;28;20494;-47
2023/06/23 00:18:36;;;;;;;9.68;5.07;;;24.20;69.40;;;;;;4995704;28;20026;-44
2023/06/23 00:21:06;;;;;;;14.60;5.07;;;24.20;69.30;;;;;;4995844;28;20507;-44
2023/06/23 00:23:33;;;;;;;12.60;5.43;;;24.20;69.30;;;;;;4995550;28;20022;-49
2023/06/23 00:25:59;;;;;;;13.00;5.10;;;24.20;69.20;;;;;;4995175;28;20030;-44
2023/06/23 00:28:25;;;;;;;20.75;5.63;;;24.20;68.90;;;;;;4995292;28;20039;-47
2023/06/23 00:30:52;;;;;;;9.02;5.13;;;24.20;70.30;;;;;;4995445;28;20030;-44
2023/06/23 00:33:19;;;;;;;7.20;5.00;;;24.20;71.40;;;;;;4978002;28;20026;-49
2023/06/23 00:35:46;;;;;;;9.32;4.85;;;24.20;71.40;;;;;;4977881;28;20101;-44
2023/06/23 00:38:13;;;;;;;9.93;5.03;;;24.20;71.00;;;;;;4977868;28;20133;-49
2023/06/23 00:40:42;;;;;;;10.52;5.28;;;24.20;70.60;;;;;;4977868;28;20026;-49
2023/06/23 00:43:08;;;;;;;10.25;4.60;;;24.20;70.50;;;;;;4995248;28;20061;-46
2023/06/23 00:45:34;;;;;;;6.93;4.70;;;24.20;70.20;;;;;;4995268;28;20482;-44
2023/06/23 00:48:05;;;;;;;7.78;4.95;;;24.30;70.30;;;;;;4995081;28;20041;-44
2023/06/23 00:50:31;;;;;;;9.10;4.88;;;24.20;70.20;;;;;;4995087;28;20429;-47
2023/06/23 00:52:58;;;;;;;12.30;4.55;;;24.20;70.00;;;;;;4994987;28;20034;-47
2023/06/23 00:55:28;;;;;;;7.80;5.00;;;24.30;69.90;;;;;;4977598;28;20031;-44
2023/06/23 00:57:56;;;;;;;8.95;4.38;;;24.30;69.60;;;;;;4994901;28;20557;-46
2023/06/23 01:00:24;;;;;;;8.32;4.70;;;24.30;69.70;;;;;;4995039;28;20026;-50
2023/06/23 01:02:52;;;;;;;9.52;4.60;;;24.30;69.70;;;;;;4994840;28;20065;-47
2023/06/23 01:05:21;;;;;;;7.10;4.57;;;24.30;69.50;;;;;;4977525;28;20050;-44
2023/06/23 01:07:57;;;;;;;7.05;4.80;;;24.30;69.50;;;;;;4977508;28;20029;-44
2023/06/23 01:10:48;;;;;;;6.45;4.28;;;24.30;69.70;;;;;;4994830;28;20076;-50
2023/06/23 01:13:31;;;;;;;8.07;4.65;;;24.30;69.60;;;;;;4994708;28;20482;-45
2023/06/23 01:16:08;;;;;;;8.43;4.68;;;24.30;69.30;;;;;;4977258;28;20516;-44
2023/06/23 01:18:38;;;;;;;6.50;4.30;;;24.30;69.20;;;;;;4994608;28;20033;-47
2023/06/23 01:21:06;;;;;;;;;;;24.30;69.00;;;;;;4977711;28;20110;-47
2023/06/23 01:23:59;;;;;;;8.38;4.53;;;24.30;69.00;;;;;;4993353;28;19909;-46
2023/06/23 01:26:56;;;;;;;6.55;4.22;;;24.30;68.80;;;;;;4994604;28;20036;-49
2023/06/23 01:29:29;;;;;;;7.57;4.88;;;24.30;69.00;;;;;;4994373;28;20030;-51
2023/06/23 01:32:01;;;;;;;6.93;4.40;;;24.30;68.90;;;;;;4977049;28;20402;-49
2023/06/23 01:34:38;;;;;;;5.78;4.28;;;24.30;69.00;;;;;;4976955;28;20034;-48
2023/06/23 01:37:10;;;;;;;7.45;4.35;;;24.30;68.80;;;;;;4994202;28;20025;-50
2023/06/23 01:39:39;;;;;;;7.20;4.53;;;24.30;69.00;;;;;;4976750;28;20454;-48
2023/06/23 01:42:10;;;;;;;6.60;4.45;;;24.30;68.90;;;;;;4994341;28;20030;-50
2023/06/23 01:44:39;;;;;;;6.85;4.70;;;24.30;69.10;;;;;;4960913;28;20482;-51
2023/06/23 01:47:13;;;;;;;6.20;4.38;;;24.30;69.30;;;;;;4994215;28;20113;-50
2023/06/23 01:49:40;;;;;;;8.80;4.55;;;24.30;69.40;;;;;;4976706;28;20026;-48
2023/06/23 01:52:07;;;;;;;7.07;4.38;;;24.30;69.20;;;;;;4994002;28;20026;-47
2023/06/23 01:54:36;;;;;;;6.10;4.88;;;24.30;69.40;;;;;;4993822;28;20038;-45
2023/06/23 01:57:04;;;;;;;8.82;4.25;;;24.30;69.30;;;;;;4976443;28;20023;-44
2023/06/23 01:59:32;;;;;;;7.90;4.50;;;24.30;69.30;;;;;;4976412;28;20097;-45
2023/06/23 02:02:00;;;;;;;7.55;4.72;;;24.30;69.10;;;;;;4976499;28;20030;-45
2023/06/23 02:04:28;;;;;;;8.88;4.15;;;24.30;69.30;;;;;;4993178;28;20038;-50
2023/06/23 02:06:56;;;;;;;6.53;4.32;;;24.30;69.30;;;;;;4976197;28;20023;-47
2023/06/23 02:09:27;;;;;;;9.90;4.55;;;24.30;69.40;;;;;;4993581;28;20023;-47
2023/06/23 02:11:55;;;;;;;6.75;4.80;;;24.30;69.00;;;;;;4993583;28;20030;-44
2023/06/23 02:14:22;;;;;;;7.40;4.30;;;24.20;69.20;;;;;;4975862;28;20406;-44
2023/06/23 02:16:50;;;;;;;8.50;4.15;;;24.30;69.30;;;;;;4975924;28;20498;-44
2023/06/23 02:19:17;;;;;;;7.30;4.70;;;24.30;69.70;;;;;;4993517;28;20034;-44
2023/06/23 02:21:45;;;;;;;6.55;4.43;;;24.20;69.40;;;;;;4993415;28;20096;-43
2023/06/23 02:24:11;;;;;;;7.15;4.30;;;24.30;69.30;;;;;;4993358;28;20041;-48
2023/06/23 02:26:40;;;;;;;7.95;4.55;;;24.20;69.50;;;;;;4975966;28;20034;-46
2023/06/23 02:29:09;;;;;;;7.03;4.25;;;24.20;69.50;;;;;;4993402;28;20027;-46
2023/06/23 02:31:36;;;;;;;6.03;3.85;;;24.20;69.40;;;;;;4993322;28;20026;-47
2023/06/23 02:34:02;;;;;;;7.60;4.60;;;24.20;69.70;;;;;;4993042;28;20054;-45
2023/06/23 02:36:34;;;;;;;7.07;4.35;;;24.20;69.80;;;;;;4993230;28;20487;-46
2023/06/23 02:39:04;;;;;;;7.55;4.28;;;24.20;69.40;;;;;;4992930;28;20022;-45
2023/06/23 02:41:34;;;;;;;6.65;4.25;;;24.20;69.60;;;;;;4993153;28;20486;-46
2023/06/23 02:44:01;;;;;;;;;;;24.20;69.80;;;;;;4993457;28;20121;-46
2023/06/23 02:46:33;;;;;;;6.40;4.00;;;24.20;69.40;;;;;;4993090;28;19910;-44
2023/06/23 02:49:06;;;;;;;6.95;4.53;;;24.20;69.40;;;;;;4993287;28;20026;-47
2023/06/23 02:51:35;;;;;;;6.65;3.88;;;24.20;70.00;;;;;;4992862;28;20097;-49
2023/06/23 02:54:06;;;;;;;7.53;4.32;;;24.20;69.60;;;;;;4992553;28;20037;-44
2023/06/23 02:56:43;;;;;;;7.72;4.25;;;24.20;69.60;;;;;;4992847;28;20076;-44
2023/06/23 02:59:15;;;;;;;6.45;4.25;;;24.20;69.50;;;;;;4992866;28;20023;-43
2023/06/23 03:01:46;;;;;;;6.60;4.28;;;24.20;69.60;;;;;;4992752;28;20030;-44
2023/06/23 03:04:12;;;;;;;6.45;4.38;;;24.20;69.50;;;;;;4992579;28;20030;-44
2023/06/23 03:06:40;;;;;;;5.65;4.05;;;24.20;69.20;;;;;;4975386;28;20388;-45
2023/06/23 03:09:06;;;;;;;6.05;3.83;;;24.20;69.40;;;;;;4992700;28;20030;-46
2023/06/23 03:11:33;;;;;;;6.03;3.83;;;24.20;69.50;;;;;;4992503;28;20026;-50
2023/06/23 03:14:00;;;;;;;7.63;4.18;;;24.20;69.40;;;;;;4974899;28;20239;-44
2023/06/23 03:16:38;;;;;;;6.05;3.67;;;24.20;69.60;;;;;;4992320;28;20045;-50
2023/06/23 03:19:07;;;;;;;6.93;4.03;;;24.20;69.60;;;;;;4992431;28;20160;-48
2023/06/23 03:21:36;;;;;;;5.88;3.83;;;24.20;69.70;;;;;;4992432;28;20022;-50
2023/06/23 03:24:07;;;;;;;6.50;4.10;;;24.20;69.40;;;;;;4974842;28;20500;-49
2023/06/23 03:26:36;;;;;;;7.70;4.40;;;24.20;69.80;;;;;;4974283;28;20498;-44
2023/06/23 03:29:05;;;;;;;5.68;4.05;;;24.10;69.60;;;;;;4974755;28;20035;-44
2023/06/23 03:31:34;;;;;;;6.90;4.07;;;24.20;70.00;;;;;;4992439;28;20109;-46
2023/06/23 03:34:01;;;;;;;8.57;4.57;;;24.10;69.80;;;;;;4992134;28;20038;-44
2023/06/23 03:36:28;;;;;;;6.65;4.07;;;24.10;69.40;;;;;;4992244;28;20145;-51
2023/06/23 03:39:02;;;;;;;7.25;4.22;;;24.10;69.50;;;;;;4992070;28;20105;-44
2023/06/23 03:41:30;;;;;;;6.40;4.15;;;24.20;69.60;;;;;;4992034;28;20510;-49
2023/06/23 03:44:05;;;;;;;8.05;4.45;;;24.10;69.70;;;;;;4992077;28;20034;-49
2023/06/23 03:46:44;;;;;;;7.93;4.20;;;24.20;69.70;;;;;;4992414;28;20685;-49
2023/06/23 03:49:12;;;;;;;7.25;4.40;;;24.20;69.40;;;;;;4992235;28;20498;-48
2023/06/23 03:51:41;;;;;;;6.50;3.60;;;24.10;69.40;;;;;;4992537;28;20037;-45
2023/06/23 03:54:08;;;;;;;6.50;4.18;;;24.10;69.70;;;;;;4991994;28;20066;-47
2023/06/23 03:56:35;;;;;;;7.03;4.47;;;24.20;69.60;;;;;;4992141;28;20058;-50
2023/06/23 03:59:03;;;;;;;7.15;4.28;;;24.10;69.80;;;;;;4991944;28;20028;-43
2023/06/23 04:01:30;;;;;;;7.68;4.75;;;24.10;69.70;;;;;;4992251;28;20037;-45
2023/06/23 04:03:57;;;;;;;5.25;3.83;;;24.10;69.70;;;;;;4991879;28;20097;-47
2023/06/23 04:06:26;;;;;;;7.43;4.38;;;24.10;69.80;;;;;;4991987;28;20406;-44
2023/06/23 04:08:54;;;;;;;6.43;4.13;;;24.10;69.60;;;;;;4991885;28;20465;-46
2023/06/23 04:11:22;;;;;;;7.00;3.67;;;24.10;69.80;;;;;;4991856;28;20305;-49
2023/06/23 04:13:50;;;;;;;7.13;4.25;;;24.20;69.90;;;;;;4991684;28;20044;-48
2023/06/23 04:16:17;;;;;;;7.55;4.38;;;24.10;70.00;;;;;;4991868;28;20030;-50
2023/06/23 04:18:45;;;;;;;4.47;3.80;;;24.10;70.50;;;;;;4991738;28;20027;-44
2023/06/23 04:21:13;;;;;;;8.27;4.60;;;24.10;69.80;;;;;;4991667;28;20029;-52
2023/06/23 04:23:41;;;;;;;6.72;4.13;;;24.10;69.60;;;;;;4991895;28;20553;-50
2023/06/23 04:26:09;;;;;;;7.82;4.32;;;24.10;69.80;;;;;;4991724;28;20037;-44
2023/06/23 04:28:36;;;;;;;5.63;4.18;;;24.10;70.00;;;;;;4991831;28;20034;-47
2023/06/23 04:31:06;;;;;;;6.90;4.22;;;24.10;69.60;;;;;;4991736;28;20338;-51
2023/06/23 04:33:32;;;;;;;6.45;4.03;;;24.10;69.70;;;;;;4991550;28;20413;-48
2023/06/23 04:36:09;;;;;;;7.25;4.25;;;24.10;69.60;;;;;;4991539;28;20027;-46
2023/06/23 04:38:39;;;;;;;6.07;4.00;;;24.10;69.60;;;;;;4993342;28;20024;-49
2023/06/23 04:41:09;;;;;;;7.75;4.15;;;24.10;69.60;;;;;;5004863;23;20090;-47
2023/06/23 04:43:38;;;;;;;;;;;24.10;69.70;;;;;;4968127;28;20054;-48
2023/06/23 04:46:23;;;;;;;5.90;3.93;;;24.20;69.80;;;;;;4976330;28;19910;-46
2023/06/23 04:48:54;;;;;;;6.63;4.45;;;24.10;69.60;;;;;;4975913;28;20043;-48
2023/06/23 04:51:31;;;;;;;7.65;4.18;;;24.10;69.60;;;;;;4975821;28;20125;-46
2023/06/23 04:54:03;;;;;;;6.68;4.30;;;24.20;69.80;;;;;;4975740;28;20034;-48
2023/06/23 04:56:33;;;;;;;6.00;3.97;;;24.10;69.80;;;;;;4975697;28;20139;-52
2023/06/23 04:59:09;;;;;;;5.93;4.20;;;24.10;69.80;;;;;;4975615;28;20533;-51
2023/06/23 05:01:36;;;;;;;7.38;4.15;;;24.10;69.80;;;;;;4975652;28;20026;-52
2023/06/23 05:04:04;;;;;;;8.65;4.28;;;24.10;69.70;;;;;;4975452;28;20054;-52
2023/06/23 05:06:31;;;;;;;6.30;4.50;;;24.10;69.80;;;;;;4975435;28;20118;-52
2023/06/23 05:08:58;;;;;;;5.82;4.28;;;24.10;70.00;;;;;;4975189;28;20041;-48
2023/06/23 05:11:25;;;;;;;10.57;4.63;;;24.10;70.00;;;;;;4975648;28;20023;-52
2023/06/23 05:13:52;;;;;;;6.38;4.40;;;24.10;69.80;;;;;;4973944;28;20130;-49
2023/06/23 05:16:20;;;;;;;8.52;4.38;;;24.10;70.00;;;;;;4975255;28;20474;-51
2023/06/23 05:18:48;;;;;;;6.88;4.43;;;24.10;70.10;;;;;;4975125;28;20491;-48
2023/06/23 05:21:17;;;;;;;6.32;4.10;;;24.10;69.90;;;;;;4975127;28;20023;-51
2023/06/23 05:23:45;;;;;;;7.80;4.43;;;24.10;70.50;;;;;;4975051;28;20050;-52
2023/06/23 05:26:14;;;;;;;8.82;4.60;;;24.10;70.00;;;;;;4975139;28;20037;-51
2023/06/23 05:28:41;;;;;;;7.27;4.57;;;24.10;70.00;;;;;;4974982;28;20122;-48
2023/06/23 05:31:09;;;;;;;6.65;4.00;;;24.10;70.00;;;;;;4973871;28;20502;-49
2023/06/23 05:33:37;;;;;;;7.10;4.60;;;24.10;70.00;;;;;;4975026;28;20031;-51
2023/06/23 05:36:07;;;;;;;7.57;4.63;;;24.10;70.20;;;;;;4974882;28;20046;-46
2023/06/23 05:38:34;;;;;;;;;;;24.10;70.10;;;;;;4975340;28;20034;-50
2023/06/23 05:41:00;;;;;;;6.32;4.20;;;24.10;70.00;;;;;;4974733;28;19936;-52
2023/06/23 05:43:26;;;;;;;6.43;4.18;;;24.00;69.80;;;;;;4975046;28;20022;-50
2023/06/23 05:45:53;;;;;;;5.72;4.13;;;24.10;70.00;;;;;;4974739;28;20023;-51
2023/06/23 05:48:37;;;;;;;7.45;4.20;;;24.00;70.00;;;;;;4974593;28;20038;-51
2023/06/23 05:51:08;;;;;;;7.63;4.38;;;24.10;70.10;;;;;;4973612;28;20037;-48
2023/06/23 05:53:36;;;;;;;9.35;4.57;;;24.00;70.10;;;;;;4974719;28;20031;-48
2023/06/23 05:56:08;;;;;;;5.45;4.05;;;24.00;69.90;;;;;;4974518;28;20035;-48
2023/06/23 05:58:38;;;;;;;9.55;4.10;;;24.00;70.20;;;;;;4974973;28;20548;-51
2023/06/23 06:01:10;;;;;;;8.02;4.13;;;24.00;70.00;;;;;;4974380;28;20103;-50
2023/06/23 06:03:44;;;;;;;6.72;4.25;;;24.10;70.00;;;;;;4974574;28;20033;-48
2023/06/23 06:06:11;;;;;;;7.03;4.10;;;24.00;69.90;;;;;;4973327;28;20035;-51
2023/06/23 06:08:39;;;;;;;8.43;4.32;;;24.10;69.80;;;;;;4974270;28;20054;-50
2023/06/23 06:11:06;;;;;;;6.72;4.40;;;24.10;69.80;;;;;;4974372;28;20081;-52
2023/06/23 06:13:41;;;;;;;7.75;4.10;;;24.10;69.90;;;;;;4974204;28;20030;-49
2023/06/23 06:16:09;;;;;;;8.82;4.30;;;24.10;69.80;;;;;;4974374;28;20507;-52
2023/06/23 06:18:37;;;;;;;6.97;4.47;;;24.10;69.80;;;;;;4974144;28;20494;-51
2023/06/23 06:21:04;;;;;;;7.60;4.28;;;24.10;69.70;;;;;;4974180;28;20030;-52
2023/06/23 06:23:31;;;;;;;8.68;4.60;;;24.10;69.80;;;;;;4972875;28;20034;-52
2023/06/23 06:25:58;;;;;;;7.15;4.50;;;24.10;69.90;;;;;;4973875;28;20122;-53
2023/06/23 06:28:26;;;;;;;7.88;4.45;;;24.10;69.80;;;;;;4973861;28;20073;-51
2023/06/23 06:30:54;;;;;;;8.05;4.90;;;24.10;69.80;;;;;;4974016;28;20035;-50
2023/06/23 06:33:21;;;;;;;8.63;5.00;;;24.10;70.00;;;;;;4973826;28;20372;-52
2023/06/23 06:35:50;;;;;;;9.13;4.78;;;24.10;69.90;;;;;;4973747;28;20510;-49
2023/06/23 06:38:16;;;;;;;7.60;5.05;;;24.10;70.00;;;;;;4973728;28;20022;-51
2023/06/23 06:40:46;;;;;;;8.65;4.65;;;24.10;69.90;;;;;;4973502;28;20084;-52
2023/06/23 06:43:12;;;;;;;;;;;24.00;69.80;;;;;;4974056;28;20061;-52
2023/06/23 06:45:40;;;;;;;7.93;4.57;;;24.00;69.90;;;;;;4972333;28;19910;-50
2023/06/23 06:48:09;;;;;;;8.20;4.68;;;24.00;69.90;;;;;;4973401;28;20526;-51
2023/06/23 06:50:35;;;;;;;9.35;5.20;;;24.00;70.10;;;;;;4973502;28;20106;-50
2023/06/23 06:53:02;;;;;;;10.32;5.13;;;24.00;70.00;;;;;;4973495;28;20031;-50
2023/06/23 06:55:29;;;;;;;7.30;4.90;;;24.00;69.90;;;;;;4973542;28;20023;-52
2023/06/23 06:57:56;;;;;;;8.75;5.18;;;24.00;70.00;;;;;;4973334;28;20022;-51
2023/06/23 07:00:22;;;;;;;9.85;5.47;;;24.10;70.00;;;;;;4973539;28;20073;-47
2023/06/23 07:02:49;;;;;;;10.10;5.60;;;24.00;70.00;;;;;;4973074;28;20035;-49
2023/06/23 07:05:16;;;;;;;7.60;5.18;;;24.00;70.10;;;;;;4973190;28;20035;-51
2023/06/23 07:07:44;;;;;;;9.75;5.68;;;24.00;70.10;;;;;;4972006;28;20085;-51
2023/06/23 07:10:10;;;;;;;12.00;6.20;;;24.00;70.10;;;;;;4973232;28;20110;-50
2023/06/23 07:12:36;;;;;;;8.55;5.60;;;24.00;70.10;;;;;;4973196;28;20383;-49
2023/06/23 07:15:02;;;;;;;11.20;5.75;;;24.00;70.20;;;;;;4973138;28;20061;-52
2023/06/23 07:17:29;;;;;;;12.88;6.15;;;24.00;70.20;;;;;;4971506;28;20039;-54
2023/06/23 07:19:55;;;;;;;10.25;5.90;;;24.10;70.70;;;;;;4958931;28;20094;-53
2023/06/23 07:22:21;;;;;;;16.50;7.00;;;24.10;70.40;;;;;;4956576;28;20442;-53
2023/06/23 07:24:47;;;;;;;12.07;6.32;;;24.00;70.60;;;;;;4958626;28;20018;-56
2023/06/23 07:27:15;;;;;;;11.75;6.78;;;24.00;70.60;;;;;;4959528;28;20106;-52
2023/06/23 07:29:42;;;;;;;17.95;6.00;;;24.00;70.50;;;;;;4961178;28;20054;-56
2023/06/23 07:32:08;;;;;;;15.20;6.05;;;24.00;70.60;;;;;;4949434;28;20035;-55
2023/06/23 07:34:34;;;;;;;12.02;5.95;;;24.00;70.60;;;;;;4960721;28;20023;-53
2023/06/23 07:37:00;;;;;;;13.75;8.65;;;24.10;70.60;;;;;;4953490;28;20577;-55
2023/06/23 07:39:26;;;;;;;15.55;10.13;;;24.20;71.70;;;;;;4961628;28;20022;-54
2023/06/23 07:41:52;;;;;;;16.17;9.50;;;24.10;71.80;;;;;;4959013;28;20418;-54
2023/06/23 07:44:17;;;;;;;13.30;9.23;;;24.00;72.00;;;;;;4958797;28;20081;-52
2023/06/23 07:46:43;;;;;;;14.85;7.57;;;24.10;72.00;;;;;;4959969;28;20037;-54
2023/06/23 07:49:09;;;;;;;11.10;7.15;;;24.10;71.50;;;;;;4957475;28;20098;-53
2023/06/23 07:51:35;;;;;;;9.00;5.88;;;24.10;70.80;;;;;;4959051;28;20109;-55
2023/06/23 07:54:01;;;;;;;15.70;7.47;;;24.20;70.80;;;;;;4961049;28;20030;-55
2023/06/23 07:56:27;;;;;;;14.82;6.95;;;24.20;71.20;;;;;;4968309;28;20023;-55
2023/06/23 07:58:52;;;;;;;14.52;6.50;;;24.20;70.80;;;;;;4959756;28;20063;-54
2023/06/23 08:01:18;;;;;;;14.65;6.22;;;24.30;70.70;;;;;;4955817;28;20447;-55
2023/06/23 08:03:46;;;;;;;13.05;6.70;;;24.30;70.50;;;;;;4961036;28;20458;-56
2023/06/23 08:06:12;;;;;;;12.20;6.40;;;24.30;70.60;;;;;;4950885;28;20141;-56
2023/06/23 08:08:38;;;;;;;10.65;6.15;;;24.30;71.20;;;;;;4965394;28;20027;-55
2023/06/23 08:11:04;;;;;;;9.02;5.70;;;24.20;70.90;;;;;;4951103;28;20027;-53
2023/06/23 08:13:30;;;;;;;10.20;6.15;;;24.20;70.70;;;;;;4960435;28;20031;-52
2023/06/23 08:15:56;;;;;;;13.68;5.80;;;24.20;71.20;;;;;;4969915;28;20023;-55
2023/06/23 08:18:22;;;;;;;20.27;6.90;;;24.20;71.10;;;;;;4962567;28;20427;-56
2023/06/23 08:20:49;;;;;;;18.25;6.85;;;24.20;71.50;;;;;;4968679;28;20079;-55
2023/06/23 08:23:14;;;;;;;8.10;5.50;;;24.20;71.40;;;;;;4960432;28;20026;-55
2023/06/23 08:25:40;;;;;;;18.38;6.53;;;24.20;71.40;;;;;;4961987;28;20030;-55
2023/06/23 08:28:06;;;;;;;12.05;5.70;;;24.20;71.70;;;;;;4960460;28;20034;-53
2023/06/23 08:30:32;;;;;;;15.57;4.78;;;24.10;71.70;;;;;;4957602;28;20070;-53
2023/06/23 08:32:58;;;;;;;11.45;5.43;;;24.10;71.80;;;;;;4968522;28;20042;-50
2023/06/23 08:35:24;;;;;;;12.65;5.78;;;24.20;72.30;;;;;;4974371;28;20023;-53
2023/06/23 08:37:50;;;;;;;14.18;6.28;;;24.10;72.00;;;;;;4973806;28;20037;-55
2023/06/23 08:40:16;;;;;;;20.35;7.10;;;24.10;72.60;;;;;;4954233;28;20117;-53
2023/06/23 08:42:42;;;;;;;12.18;5.68;;;24.10;73.10;;;;;;4971666;28;20035;-48
2023/06/23 08:45:10;;;;;;;19.77;6.55;;;24.10;72.40;;;;;;4964413;28;20035;-52
2023/06/23 08:47:45;;;;;;;17.65;6.93;;;24.10;72.60;;;;;;4963892;28;20027;-52
2023/06/23 08:50:11;;;;;;;23.15;6.20;;;24.10;72.90;;;;;;4958909;28;20030;-49
2023/06/23 08:52:38;;;;;;;21.27;6.25;;;24.10;73.00;;;;;;4958124;28;20031;-51
2023/06/23 08:55:04;;;;;;;21.42;5.55;;;24.20;73.20;;;;;;4964730;28;20026;-50
2023/06/23 08:57:30;;;;;;;20.80;6.35;;;24.10;73.00;;;;;;4963381;28;20062;-52
2023/06/23 08:59:57;;;;;;;16.08;5.38;;;24.10;72.80;;;;;;4964116;28;20065;-54
2023/06/23 09:02:23;;;;;;;16.95;5.55;;;24.10;72.90;;;;;;4950150;28;20066;-53
2023/06/23 09:04:49;;;;;;;16.40;5.43;;;24.10;72.90;;;;;;4964357;28;20035;-54
2023/06/23 09:07:15;;;;;;;16.35;5.88;;;24.10;73.00;;;;;;4964971;28;20470;-53
2023/06/23 09:09:45;;;;;;;16.23;5.60;;;24.20;73.50;;;;;;4961794;28;20031;-55
2023/06/23 09:12:14;;;;;;;21.33;6.05;;;24.20;72.70;;;;;;4979880;28;20012;-56
2023/06/23 09:14:40;;;;;;;25.17;6.55;;;24.20;73.90;;;;;;4961620;28;20039;-52
2023/06/23 09:17:07;;;;;;;23.10;5.68;;;24.30;73.40;;;;;;4955525;28;20042;-57
2023/06/23 09:19:33;;;;;;;9.70;5.13;;;24.30;72.70;;;;;;4961324;28;20051;-53
2023/06/23 09:22:00;;;;;;;7.97;5.00;;;24.30;72.60;;;;;;4953258;28;20491;-56
2023/06/23 09:24:49;;;;;;;10.40;5.28;;;24.30;72.50;;;;;;4950766;28;20106;-56
2023/06/23 09:27:15;;;;;;;11.07;5.40;;;24.30;72.40;;;;;;4954196;28;20481;-56
2023/06/23 09:29:41;;;;;;;11.18;5.13;;;24.30;71.90;;;;;;4960710;28;20106;-56
2023/06/23 09:32:10;;;;;;;16.02;5.07;;;24.30;72.20;;;;;;4964229;28;20059;-57
2023/06/23 09:34:39;;;;;;;6.60;5.10;;;24.30;72.10;;;;;;4959335;28;20522;-54
2023/06/23 09:37:05;;;;;;;10.95;4.72;;;24.30;71.80;;;;;;4963803;28;20023;-57
2023/06/23 09:39:39;;;;;;;13.45;5.03;;;24.30;72.10;;;;;;4960664;28;20439;-55
2023/06/23 09:42:12;;;;;;;11.18;5.13;;;24.30;72.10;;;;;;4960056;28;20031;-57
2023/06/23 09:44:42;;;;;;;13.38;5.57;;;24.30;72.00;;;;;;4964235;28;20031;-56
2023/06/23 09:47:09;;;;;;;10.02;4.80;;;24.30;72.10;;;;;;4956308;28;20027;-57
2023/06/23 09:49:43;;;;;;;10.40;4.97;;;24.30;72.10;;;;;;4960323;28;20055;-57
2023/06/23 09:52:12;;;;;;;11.50;5.03;;;24.30;72.10;;;;;;4956595;28;20102;-56
2023/06/23 09:54:39;;;;;;;15.43;5.70;;;24.30;72.10;;;;;;4959086;28;20089;-57
2023/06/23 09:57:07;;;;;;;12.95;5.18;;;24.30;72.00;;;;;;4945579;28;20081;-57
2023/06/23 09:59:38;;;;;;;13.32;5.40;;;24.20;72.10;;;;;;4964955;28;20533;-57
2023/06/23 10:02:07;;;;;;;8.55;5.00;;;24.20;72.10;;;;;;4961101;28;20127;-57
2023/06/23 10:04:32;;;;;;;9.55;5.63;;;24.20;72.10;;;;;;4960074;28;20510;-57
2023/06/23 10:07:16;;;;;;;9.55;5.15;;;24.30;72.00;;;;;;4956541;28;20031;-57
2023/06/23 10:09:49;;;;;;;9.65;5.07;;;24.20;72.00;;;;;;4960095;28;20058;-57
2023/06/23 10:12:16;;;;;;;8.52;5.25;;;24.20;72.00;;;;;;4957719;28;20066;-56
2023/06/23 10:14:43;;;;;;;8.40;5.38;;;24.20;72.00;;;;;;4962940;28;20027;-55
2023/06/23 10:17:09;;;;;;;10.40;5.53;;;24.30;72.10;;;;;;4953622;28;20028;-57
2023/06/23 10:19:35;;;;;;;9.38;5.35;;;24.20;72.00;;;;;;4959442;28;20027;-56
2023/06/23 10:22:01;;;;;;;10.60;5.43;;;24.20;71.80;;;;;;4956986;28;20034;-56
2023/06/23 10:24:30;;;;;;;13.93;6.35;;;24.20;71.60;;;;;;4959966;28;20039;-54
2023/06/23 10:26:58;;;;;;;11.87;6.27;;;24.20;72.00;;;;;;4961313;28;20038;-55
2023/06/23 10:29:24;;;;;;;11.25;5.00;;;24.20;72.70;;;;;;4963757;28;20022;-56
2023/06/23 10:31:56;;;;;;;9.70;5.85;;;24.20;73.00;;;;;;4959329;28;20399;-54
2023/06/23 10:34:24;;;;;;;14.13;6.82;;;24.20;73.00;;;;;;4958758;28;20027;-56
2023/06/23 10:36:56;;;;;;;17.77;8.25;;;24.30;72.70;;;;;;4959497;28;20405;-56
2023/06/23 10:39:26;;;;;;;18.48;7.45;;;24.20;72.70;;;;;;4957609;28;20022;-56
2023/06/23 10:41:53;;;;;;;23.85;8.98;;;24.20;72.50;;;;;;4959786;28;20721;-55
2023/06/23 10:44:19;;;;;;;11.98;8.32;;;24.20;72.50;;;;;;4960132;28;20054;-54
2023/06/23 10:46:46;;;;;;;14.95;8.45;;;24.20;72.60;;;;;;4959114;28;20023;-56
2023/06/23 10:49:12;;;;;;;12.45;8.93;;;24.10;73.10;;;;;;4959825;28;20038;-56
2023/06/23 10:51:39;;;;;;;13.10;8.63;;;24.10;73.40;;;;;;4974986;28;20133;-56
2023/06/23 10:54:07;;;;;;;23.83;9.05;;;24.10;72.50;;;;;;4952791;28;20151;-56
2023/06/23 10:56:39;;;;;;;24.30;16.63;;;24.10;73.50;;;;;;4963185;28;20030;-53
2023/06/23 10:59:26;;;;;;;27.65;14.50;;;24.10;72.90;;;;;;4959190;28;20015;-53
2023/06/23 11:02:04;;;;;;;25.65;15.73;;;24.10;72.70;;;;;;4960245;28;20042;-55
2023/06/23 11:04:56;;;;;;;23.67;13.75;;;24.20;72.70;;;;;;4962431;28;20657;-55
2023/06/23 11:07:23;;;;;;;19.73;14.00;;;24.20;73.00;;;;;;4963433;28;20031;-55
2023/06/23 11:09:55;;;;;;;17.85;13.15;;;24.20;72.60;;;;;;4958994;28;20030;-56
2023/06/23 11:12:38;;;;;;;24.98;17.67;;;24.20;72.80;;;;;;4956712;28;20406;-56
2023/06/23 11:15:21;;;;;;;15.63;11.20;;;24.20;72.60;;;;;;4952313;28;20037;-55
2023/06/23 11:17:49;;;;;;;21.63;14.13;;;24.20;72.60;;;;;;4952208;28;20066;-56
2023/06/23 11:20:27;;;;;;;17.60;10.45;;;24.20;72.70;;;;;;4991668;23;20046;-46
2023/06/23 11:23:06;;;;;;;20.08;10.73;;;24.20;72.50;;;;;;4977268;28;20026;-45
2023/06/23 11:25:43;;;;;;;13.98;9.63;;;24.20;72.20;;;;;;4970477;28;20135;-46
2023/06/23 11:28:28;;;;;;;11.82;7.90;;;24.10;72.10;;;;;;4975782;28;20058;-45
2023/06/23 11:31:14;;;;;;;12.35;7.32;;;24.10;72.00;;;;;;4969856;28;20023;-44
2023/06/23 11:33:44;;;;;;;11.80;7.72;;;24.00;72.10;;;;;;4975392;28;20042;-44
2023/06/23 11:36:16;;;;;;;13.30;7.15;;;24.00;72.20;;;;;;4970888;28;20190;-45
2023/06/23 11:38:43;;;;;;;9.70;6.60;;;24.00;72.10;;;;;;4975073;28;20023;-44
2023/06/23 11:41:11;;;;;;;12.20;6.15;;;24.00;72.00;;;;;;4969960;28;20026;-46
2023/06/23 11:43:45;;;;;;;12.80;6.28;;;24.00;72.10;;;;;;4974011;28;20553;-44
2023/06/23 11:46:12;;;;;;;9.15;6.20;;;24.10;72.10;;;;;;4970251;28;20031;-44
2023/06/23 11:48:41;;;;;;;14.82;5.95;;;24.10;72.00;;;;;;4973499;28;20517;-44
2023/06/23 11:51:09;;;;;;;11.02;6.18;;;24.10;72.50;;;;;;4970605;28;20027;-44
2023/06/23 11:53:36;;;;;;;10.75;6.55;;;24.10;72.00;;;;;;4974157;28;20057;-44
2023/06/23 11:56:03;;;;;;;13.55;6.50;;;24.10;72.10;;;;;;4969764;28;20030;-47
2023/06/23 11:58:30;;;;;;;15.57;7.90;;;24.10;72.00;;;;;;4973152;28;20023;-44
2023/06/23 12:00:56;;;;;;;16.88;6.97;;;24.10;72.90;;;;;;4969768;28;20105;-44
2023/06/23 12:03:23;;;;;;;21.85;7.85;;;24.10;72.40;;;;;;4974443;28;20574;-44
2023/06/23 12:05:49;;;;;;;17.35;6.43;;;24.10;72.40;;;;;;4969544;28;20534;-44
2023/06/23 12:08:15;;;;;;;18.38;6.72;;;24.10;72.20;;;;;;4973291;28;20058;-43
2023/06/23 12:10:41;;;;;;;15.13;6.68;;;24.10;72.20;;;;;;4971063;28;20085;-44
2023/06/23 12:13:11;;;;;;;14.88;6.65;;;24.20;72.50;;;;;;4981343;28;20426;-47
2023/06/23 12:15:40;;;;;;;;;;;24.20;72.50;;;;;;4969927;28;20030;-44
2023/06/23 12:18:07;;;;;;;19.42;7.25;;;24.20;72.50;;;;;;4973483;28;20378;-45
2023/06/23 12:20:38;;;;;;;17.85;6.85;;;24.20;72.30;;;;;;4969547;28;20422;-44
2023/06/23 12:23:10;;;;;;;17.10;7.50;;;24.20;72.40;;;;;;4969564;28;20434;-45
2023/06/23 12:25:41;;;;;;;27.02;8.77;;;24.30;72.40;;;;;;4969374;28;20039;-44
2023/06/23 12:28:15;;;;;;;22.13;8.55;;;24.30;72.50;;;;;;4971609;28;20022;-46
2023/06/23 12:30:43;;;;;;;19.42;7.47;;;24.30;72.40;;;;;;4969488;28;20058;-44
2023/06/23 12:33:16;;;;;;;17.15;8.30;;;24.30;72.30;;;;;;4972509;28;20031;-46
2023/06/23 12:36:03;;;;;;;18.02;7.70;;;24.30;72.10;;;;;;4968258;28;20542;-44
2023/06/23 12:38:32;;;;;;;13.52;7.13;;;24.30;72.20;;;;;;4969342;28;20033;-44
2023/06/23 12:41:18;;;;;;;22.17;7.75;;;24.30;71.90;;;;;;4969242;28;20416;-47
2023/06/23 12:43:47;;;;;;;15.32;7.55;;;24.30;71.90;;;;;;4970453;28;20062;-44
2023/06/23 12:46:15;;;;;;;23.35;7.40;;;24.30;71.90;;;;;;4969643;28;20457;-47
2023/06/23 12:48:42;;;;;;;17.48;7.18;;;24.30;71.90;;;;;;4970462;28;20541;-44
2023/06/23 12:51:08;;;;;;;16.90;7.20;;;24.30;71.90;;;;;;4970015;28;20055;-48
2023/06/23 12:53:35;;;;;;;19.70;7.53;;;24.30;72.10;;;;;;4970506;28;20507;-47